sensor_id;sensor_type;location;lat;lon;timestamp;temperature;humidity
33717;DHT22;20046;50.746;7.072;2023-07-31T00:00:14;18.10;99.90
33717;DHT22;20046;50.746;7.072;2023-07-31T00:02:40;18.20;99.90
33717;DHT22;20046;50.746;7.072;2023-07-31T00:05:07;18.10;99.90
33717;DHT22;20046;50.746;7.072;2023-07-31T00:07:33;18.20;99.90
33717;DHT22;20046;50.746;7.072;2023-07-31T00:09:59;18.10;99.90
33717;DHT22;20046;50.746;7.072;2023-07-31T00:12:24;18.20;99.90
33717;DHT22;20046;50.746;7.072;2023-07-31T00:14:50;18.20;99.90
33717;DHT22;20046;50.746;7.072;2023-07-31T00:17:17;18.20;99.90
33717;DHT22;20046;50.746;7.072;2023-07-31T00:19:42;18.10;99.90
33717;DHT22;20046;50.746;7.072;2023-07-31T00:22:08;18.20;99.90
33717;DHT22;20046;50.746;7.072;2023-07-31T00:24:33;18.20;99.90
33717;DHT22;20046;50.746;7.072;2023-07-31T00:26:59;18.20;99.90
33717;DHT22;20046;50.746;7.072;2023-07-31T00:29:24;18.20;99.90
33717;DHT22;20046;50.746;7.072;2023-07-31T00:31:50;18.20;99.90
33717;DHT22;20046;50.746;7.072;2023-07-31T00:34:16;18.20;99.90
33717;DHT22;20046;50.746;7.072;2023-07-31T00:36:41;18.20;99.90
33717;DHT22;20046;50.746;7.072;2023-07-31T00:39:07;18.20;99.90
33717;DHT22;20046;50.746;7.072;2023-07-31T00:41:32;18.20;99.90
33717;DHT22;20046;50.746;7.072;2023-07-31T00:43:58;18.20;99.90
33717;DHT22;20046;50.746;7.072;2023-07-31T00:46:23;18.20;99.90
33717;DHT22;20046;50.746;7.072;2023-07-31T00:48:49;18.20;99.90
33717;DHT22;20046;50.746;7.072;2023-07-31T00:51:15;18.20;99.90
33717;DHT22;20046;50.746;7.072;2023-07-31T00:53:41;18.20;99.90
33717;DHT22;20046;50.746;7.072;2023-07-31T00:56:08;18.20;99.90
33717;DHT22;20046;50.746;7.072;2023-07-31T00:58:34;18.20;99.90
33717;DHT22;20046;50.746;7.072;2023-07-31T01:00:59;18.20;99.90
33717;DHT22;20046;50.746;7.072;2023-07-31T01:03:25;18.10;99.90
33717;DHT22;20046;50.746;7.072;2023-07-31T01:11:35;18.10;99.90
33717;DHT22;20046;50.746;7.072;2023-07-31T01:14:03;18.10;99.90
33717;DHT22;20046;50.746;7.072;2023-07-31T01:16:29;18.10;99.90
33717;DHT22;20046;50.746;7.072;2023-07-31T01:18:54;18.10;99.90
33717;DHT22;20046;50.746;7.072;2023-07-31T01:26:46;18.00;99.90
33717;DHT22;20046;50.746;7.072;2023-07-31T01:29:49;17.90;99.90
33717;DHT22;20046;50.746;7.072;2023-07-31T01:32:18;17.90;99.90
33717;DHT22;20046;50.746;7.072;2023-07-31T01:34:45;17.80;99.90
33717;DHT22;20046;50.746;7.072;2023-07-31T01:37:12;17.70;99.90
33717;DHT22;20046;50.746;7.072;2023-07-31T01:39:37;17.60;99.90
33717;DHT22;20046;50.746;7.072;2023-07-31T01:42:03;17.50;99.90
33717;DHT22;20046;50.746;7.072;2023-07-31T01:44:28;17.30;99.90
33717;DHT22;20046;50.746;7.072;2023-07-31T01:46:54;17.20;99.90
33717;DHT22;20046;50.746;7.072;2023-07-31T01:49:20;17.10;99.90
33717;DHT22;20046;50.746;7.072;2023-07-31T01:51:45;17.00;99.90
33717;DHT22;20046;50.746;7.072;2023-07-31T01:54:11;17.00;99.90
33717;DHT22;20046;50.746;7.072;2023-07-31T01:56:36;17.00;99.90
33717;DHT22;20046;50.746;7.072;2023-07-31T01:59:02;17.00;99.90
33717;DHT22;20046;50.746;7.072;2023-07-31T02:01:28;17.00;99.90
33717;DHT22;20046;50.746;7.072;2023-07-31T02:03:53;17.00;99.90
33717;DHT22;20046;50.746;7.072;2023-07-31T02:06:19;16.90;99.90
33717;DHT22;20046;50.746;7.072;2023-07-31T02:08:45;16.90;99.90
33717;DHT22;20046;50.746;7.072;2023-07-31T02:11:10;16.90;99.90
33717;DHT22;20046;50.746;7.072;2023-07-31T02:13:36;16.90;99.90
33717;DHT22;20046;50.746;7.072;2023-07-31T02:16:01;16.90;99.90
33717;DHT22;20046;50.746;7.072;2023-07-31T02:18:27;17.00;99.90
33717;DHT22;20046;50.746;7.072;2023-07-31T02:20:53;17.00;99.90
33717;DHT22;20046;50.746;7.072;2023-07-31T02:23:19;17.00;99.90
33717;DHT22;20046;50.746;7.072;2023-07-31T02:25:45;17.10;99.90
33717;DHT22;20046;50.746;7.072;2023-07-31T02:28:10;17.10;99.90
33717;DHT22;20046;50.746;7.072;2023-07-31T02:30:36;17.10;99.90
33717;DHT22;20046;50.746;7.072;2023-07-31T02:33:02;17.10;99.90
33717;DHT22;20046;50.746;7.072;2023-07-31T02:35:27;17.10;99.90
33717;DHT22;20046;50.746;7.072;2023-07-31T02:37:53;17.10;99.90
33717;DHT22;20046;50.746;7.072;2023-07-31T02:40:19;17.10;99.90
33717;DHT22;20046;50.746;7.072;2023-07-31T02:42:44;17.10;99.90
33717;DHT22;20046;50.746;7.072;2023-07-31T02:45:10;17.10;99.90
33717;DHT22;20046;50.746;7.072;2023-07-31T02:47:35;17.10;99.90
33717;DHT22;20046;50.746;7.072;2023-07-31T02:50:04;17.10;99.90
33717;DHT22;20046;50.746;7.072;2023-07-31T02:52:30;17.10;99.90
33717;DHT22;20046;50.746;7.072;2023-07-31T02:54:55;17.20;99.90
33717;DHT22;20046;50.746;7.072;2023-07-31T02:57:21;17.20;99.90
33717;DHT22;20046;50.746;7.072;2023-07-31T02:59:46;17.20;99.90
33717;DHT22;20046;50.746;7.072;2023-07-31T03:02:12;17.20;99.90
33717;DHT22;20046;50.746;7.072;2023-07-31T03:04:38;17.30;99.90
33717;DHT22;20046;50.746;7.072;2023-07-31T03:07:04;17.30;99.90
33717;DHT22;20046;50.746;7.072;2023-07-31T03:09:30;17.30;99.90
33717;DHT22;20046;50.746;7.072;2023-07-31T03:11:55;17.30;99.90
33717;DHT22;20046;50.746;7.072;2023-07-31T03:14:21;17.30;99.90
33717;DHT22;20046;50.746;7.072;2023-07-31T03:16:47;17.30;99.90
33717;DHT22;20046;50.746;7.072;2023-07-31T03:19:12;17.40;99.90
33717;DHT22;20046;50.746;7.072;2023-07-31T03:21:38;17.40;99.90
33717;DHT22;20046;50.746;7.072;2023-07-31T03:24:04;17.40;99.90
33717;DHT22;20046;50.746;7.072;2023-07-31T03:26:31;17.50;99.90
33717;DHT22;20046;50.746;7.072;2023-07-31T03:28:57;17.50;99.90
33717;DHT22;20046;50.746;7.072;2023-07-31T03:31:22;17.50;99.90
33717;DHT22;20046;50.746;7.072;2023-07-31T03:33:48;17.50;99.90
33717;DHT22;20046;50.746;7.072;2023-07-31T03:36:13;17.50;99.90
33717;DHT22;20046;50.746;7.072;2023-07-31T03:38:39;17.50;99.90
33717;DHT22;20046;50.746;7.072;2023-07-31T03:41:05;17.50;99.90
33717;DHT22;20046;50.746;7.072;2023-07-31T03:43:32;17.60;99.90
33717;DHT22;20046;50.746;7.072;2023-07-31T03:45:59;17.60;99.90
33717;DHT22;20046;50.746;7.072;2023-07-31T03:48:25;17.60;99.90
33717;DHT22;20046;50.746;7.072;2023-07-31T03:50:51;17.50;99.90
33717;DHT22;20046;50.746;7.072;2023-07-31T03:53:17;17.50;99.90
33717;DHT22;20046;50.746;7.072;2023-07-31T03:55:42;17.50;99.90
33717;DHT22;20046;50.746;7.072;2023-07-31T03:58:08;17.50;99.90
33717;DHT22;20046;50.746;7.072;2023-07-31T04:00:33;17.50;99.90
33717;DHT22;20046;50.746;7.072;2023-07-31T04:02:59;17.50;99.90
33717;DHT22;20046;50.746;7.072;2023-07-31T04:05:25;17.50;99.90
33717;DHT22;20046;50.746;7.072;2023-07-31T04:07:51;17.50;99.90
33717;DHT22;20046;50.746;7.072;2023-07-31T04:10:16;17.50;99.90
33717;DHT22;20046;50.746;7.072;2023-07-31T04:12:42;17.50;99.90
33717;DHT22;20046;50.746;7.072;2023-07-31T04:15:08;17.60;99.90
33717;DHT22;20046;50.746;7.072;2023-07-31T04:17:34;17.50;99.90
33717;DHT22;20046;50.746;7.072;2023-07-31T04:19:59;17.60;99.90
33717;DHT22;20046;50.746;7.072;2023-07-31T04:22:25;17.60;99.90
33717;DHT22;20046;50.746;7.072;2023-07-31T04:24:50;17.60;99.90
33717;DHT22;20046;50.746;7.072;2023-07-31T04:27:16;17.70;99.90
33717;DHT22;20046;50.746;7.072;2023-07-31T04:29:42;17.70;99.90
33717;DHT22;20046;50.746;7.072;2023-07-31T04:32:09;17.70;99.90
33717;DHT22;20046;50.746;7.072;2023-07-31T04:34:35;17.70;99.90
33717;DHT22;20046;50.746;7.072;2023-07-31T04:37:00;17.70;99.90
33717;DHT22;20046;50.746;7.072;2023-07-31T04:39:26;17.70;99.90
33717;DHT22;20046;50.746;7.072;2023-07-31T04:41:52;17.70;99.90
33717;DHT22;20046;50.746;7.072;2023-07-31T04:44:17;17.80;99.90
33717;DHT22;20046;50.746;7.072;2023-07-31T04:46:43;17.80;99.90
33717;DHT22;20046;50.746;7.072;2023-07-31T04:49:08;17.80;99.90
33717;DHT22;20046;50.746;7.072;2023-07-31T04:51:34;17.80;99.90
33717;DHT22;20046;50.746;7.072;2023-07-31T04:53:59;17.90;99.90
33717;DHT22;20046;50.746;7.072;2023-07-31T04:56:25;17.90;99.90
33717;DHT22;20046;50.746;7.072;2023-07-31T04:58:50;17.90;99.90
33717;DHT22;20046;50.746;7.072;2023-07-31T05:01:16;18.00;99.90
33717;DHT22;20046;50.746;7.072;2023-07-31T05:03:42;18.10;99.90
33717;DHT22;20046;50.746;7.072;2023-07-31T05:06:07;18.20;99.90
33717;DHT22;20046;50.746;7.072;2023-07-31T05:08:33;18.20;99.90
33717;DHT22;20046;50.746;7.072;2023-07-31T05:10:59;18.30;99.90
33717;DHT22;20046;50.746;7.072;2023-07-31T05:13:24;18.30;99.90
33717;DHT22;20046;50.746;7.072;2023-07-31T05:15:50;18.30;99.90
33717;DHT22;20046;50.746;7.072;2023-07-31T05:18:15;18.40;99.90
33717;DHT22;20046;50.746;7.072;2023-07-31T05:20:41;18.40;99.90
33717;DHT22;20046;50.746;7.072;2023-07-31T05:23:07;18.50;99.90
33717;DHT22;20046;50.746;7.072;2023-07-31T05:25:32;18.50;99.90
33717;DHT22;20046;50.746;7.072;2023-07-31T05:27:58;18.60;99.90
33717;DHT22;20046;50.746;7.072;2023-07-31T05:30:23;18.70;99.90
33717;DHT22;20046;50.746;7.072;2023-07-31T05:32:49;18.70;99.90
33717;DHT22;20046;50.746;7.072;2023-07-31T05:35:15;18.80;99.90
33717;DHT22;20046;50.746;7.072;2023-07-31T05:37:40;18.80;99.90
33717;DHT22;20046;50.746;7.072;2023-07-31T05:40:06;18.90;99.90
33717;DHT22;20046;50.746;7.072;2023-07-31T05:42:32;18.90;99.90
33717;DHT22;20046;50.746;7.072;2023-07-31T05:44:58;18.90;99.90
33717;DHT22;20046;50.746;7.072;2023-07-31T05:47:23;18.90;99.90
33717;DHT22;20046;50.746;7.072;2023-07-31T05:49:49;18.90;99.90
33717;DHT22;20046;50.746;7.072;2023-07-31T05:52:18;18.90;99.90
33717;DHT22;20046;50.746;7.072;2023-07-31T05:54:43;18.90;99.90
33717;DHT22;20046;50.746;7.072;2023-07-31T05:57:09;18.90;99.90
33717;DHT22;20046;50.746;7.072;2023-07-31T05:59:35;18.90;99.90
33717;DHT22;20046;50.746;7.072;2023-07-31T06:02:00;18.90;99.90
33717;DHT22;20046;50.746;7.072;2023-07-31T06:04:26;18.80;99.90
33717;DHT22;20046;50.746;7.072;2023-07-31T06:06:51;18.80;99.90
33717;DHT22;20046;50.746;7.072;2023-07-31T06:09:17;18.70;99.90
33717;DHT22;20046;50.746;7.072;2023-07-31T06:11:43;18.70;99.90
33717;DHT22;20046;50.746;7.072;2023-07-31T06:14:08;18.70;99.90
33717;DHT22;20046;50.746;7.072;2023-07-31T06:16:34;18.60;99.90
33717;DHT22;20046;50.746;7.072;2023-07-31T06:19:00;18.50;99.90
33717;DHT22;20046;50.746;7.072;2023-07-31T06:21:26;18.50;99.90
33717;DHT22;20046;50.746;7.072;2023-07-31T06:23:52;18.40;99.90
33717;DHT22;20046;50.746;7.072;2023-07-31T06:26:17;18.30;99.90
33717;DHT22;20046;50.746;7.072;2023-07-31T06:28:43;18.20;99.90
33717;DHT22;20046;50.746;7.072;2023-07-31T06:31:09;18.10;99.90
33717;DHT22;20046;50.746;7.072;2023-07-31T06:33:35;18.00;99.90
33717;DHT22;20046;50.746;7.072;2023-07-31T06:36:00;17.90;99.90
33717;DHT22;20046;50.746;7.072;2023-07-31T06:38:27;17.90;99.90
33717;DHT22;20046;50.746;7.072;2023-07-31T06:40:53;17.80;99.90
33717;DHT22;20046;50.746;7.072;2023-07-31T06:43:18;17.80;99.90
33717;DHT22;20046;50.746;7.072;2023-07-31T06:45:44;17.80;99.90
33717;DHT22;20046;50.746;7.072;2023-07-31T06:48:11;17.80;99.90
33717;DHT22;20046;50.746;7.072;2023-07-31T06:50:36;17.80;99.90
33717;DHT22;20046;50.746;7.072;2023-07-31T06:53:02;17.90;99.90
33717;DHT22;20046;50.746;7.072;2023-07-31T06:55:28;17.90;99.90
33717;DHT22;20046;50.746;7.072;2023-07-31T06:57:54;17.90;99.90
33717;DHT22;20046;50.746;7.072;2023-07-31T07:00:21;18.00;99.90
33717;DHT22;20046;50.746;7.072;2023-07-31T07:02:47;18.10;99.90
33717;DHT22;20046;50.746;7.072;2023-07-31T07:05:13;18.20;99.90
33717;DHT22;20046;50.746;7.072;2023-07-31T07:07:40;18.30;99.90
33717;DHT22;20046;50.746;7.072;2023-07-31T07:10:06;18.50;99.90
33717;DHT22;20046;50.746;7.072;2023-07-31T07:12:32;18.80;99.90
33717;DHT22;20046;50.746;7.072;2023-07-31T07:15:01;19.30;99.90
33717;DHT22;20046;50.746;7.072;2023-07-31T07:17:29;19.70;99.90
33717;DHT22;20046;50.746;7.072;2023-07-31T07:19:56;19.90;99.90
33717;DHT22;20046;50.746;7.072;2023-07-31T07:22:22;19.90;99.90
33717;DHT22;20046;50.746;7.072;2023-07-31T07:24:48;19.90;99.90
33717;DHT22;20046;50.746;7.072;2023-07-31T07:27:14;19.70;99.90
33717;DHT22;20046;50.746;7.072;2023-07-31T07:29:40;19.60;99.90
33717;DHT22;20046;50.746;7.072;2023-07-31T07:32:05;19.50;99.90
33717;DHT22;20046;50.746;7.072;2023-07-31T07:34:31;19.40;99.90
33717;DHT22;20046;50.746;7.072;2023-07-31T07:36:57;19.40;99.90
33717;DHT22;20046;50.746;7.072;2023-07-31T07:39:22;19.30;99.90
33717;DHT22;20046;50.746;7.072;2023-07-31T07:41:48;19.20;99.90
33717;DHT22;20046;50.746;7.072;2023-07-31T07:44:14;19.10;99.90
33717;DHT22;20046;50.746;7.072;2023-07-31T07:46:40;18.90;99.90
33717;DHT22;20046;50.746;7.072;2023-07-31T07:49:05;18.70;99.90
33717;DHT22;20046;50.746;7.072;2023-07-31T07:51:31;18.60;99.90
33717;DHT22;20046;50.746;7.072;2023-07-31T07:54:00;18.50;99.90
33717;DHT22;20046;50.746;7.072;2023-07-31T07:56:26;18.40;99.90
33717;DHT22;20046;50.746;7.072;2023-07-31T07:58:53;18.40;99.90
33717;DHT22;20046;50.746;7.072;2023-07-31T08:01:19;18.30;99.90
33717;DHT22;20046;50.746;7.072;2023-07-31T08:03:44;18.30;99.90
33717;DHT22;20046;50.746;7.072;2023-07-31T08:06:10;18.20;99.90
33717;DHT22;20046;50.746;7.072;2023-07-31T08:08:36;18.20;99.90
33717;DHT22;20046;50.746;7.072;2023-07-31T08:11:02;18.10;99.90
33717;DHT22;20046;50.746;7.072;2023-07-31T08:13:28;18.20;99.90
33717;DHT22;20046;50.746;7.072;2023-07-31T08:15:53;18.20;99.90
33717;DHT22;20046;50.746;7.072;2023-07-31T08:18:19;18.20;99.90
33717;DHT22;20046;50.746;7.072;2023-07-31T08:20:45;18.10;99.90
33717;DHT22;20046;50.746;7.072;2023-07-31T08:23:11;18.20;99.90
33717;DHT22;20046;50.746;7.072;2023-07-31T08:25:37;18.20;99.90
33717;DHT22;20046;50.746;7.072;2023-07-31T08:28:03;18.20;99.90
33717;DHT22;20046;50.746;7.072;2023-07-31T08:30:29;18.30;99.90
33717;DHT22;20046;50.746;7.072;2023-07-31T08:32:55;18.20;99.90
33717;DHT22;20046;50.746;7.072;2023-07-31T08:35:21;18.20;99.90
33717;DHT22;20046;50.746;7.072;2023-07-31T08:37:46;18.20;99.90
33717;DHT22;20046;50.746;7.072;2023-07-31T08:40:12;18.10;99.90
33717;DHT22;20046;50.746;7.072;2023-07-31T08:42:45;18.10;99.90
33717;DHT22;20046;50.746;7.072;2023-07-31T08:45:15;18.10;99.90
33717;DHT22;20046;50.746;7.072;2023-07-31T08:47:44;18.10;99.90
33717;DHT22;20046;50.746;7.072;2023-07-31T08:50:12;18.10;99.90
33717;DHT22;20046;50.746;7.072;2023-07-31T08:52:38;18.10;99.90
33717;DHT22;20046;50.746;7.072;2023-07-31T08:55:05;18.10;99.90
33717;DHT22;20046;50.746;7.072;2023-07-31T08:57:32;18.10;99.90
33717;DHT22;20046;50.746;7.072;2023-07-31T08:59:59;18.00;99.90
33717;DHT22;20046;50.746;7.072;2023-07-31T09:02:27;18.00;99.90
33717;DHT22;20046;50.746;7.072;2023-07-31T09:04:54;18.00;99.90
33717;DHT22;20046;50.746;7.072;2023-07-31T09:07:20;18.00;99.90
33717;DHT22;20046;50.746;7.072;2023-07-31T09:09:46;18.00;99.90
33717;DHT22;20046;50.746;7.072;2023-07-31T09:12:12;18.00;99.90
33717;DHT22;20046;50.746;7.072;2023-07-31T09:14:38;18.00;99.90
33717;DHT22;20046;50.746;7.072;2023-07-31T09:17:04;18.00;99.90
33717;DHT22;20046;50.746;7.072;2023-07-31T09:19:34;18.10;99.90
33717;DHT22;20046;50.746;7.072;2023-07-31T09:22:02;18.10;99.90
33717;DHT22;20046;50.746;7.072;2023-07-31T09:24:31;18.20;99.90
33717;DHT22;20046;50.746;7.072;2023-07-31T09:26:58;18.20;99.90
33717;DHT22;20046;50.746;7.072;2023-07-31T09:29:25;18.30;99.90
33717;DHT22;20046;50.746;7.072;2023-07-31T09:31:52;18.30;99.90
33717;DHT22;20046;50.746;7.072;2023-07-31T09:34:18;18.30;99.90
33717;DHT22;20046;50.746;7.072;2023-07-31T09:36:49;18.40;99.90
33717;DHT22;20046;50.746;7.072;2023-07-31T09:39:16;18.40;99.90
33717;DHT22;20046;50.746;7.072;2023-07-31T09:41:44;18.50;99.90
33717;DHT22;20046;50.746;7.072;2023-07-31T09:44:13;18.50;99.90
33717;DHT22;20046;50.746;7.072;2023-07-31T09:46:42;18.50;99.90
33717;DHT22;20046;50.746;7.072;2023-07-31T09:49:12;18.50;99.90
33717;DHT22;20046;50.746;7.072;2023-07-31T09:51:40;18.50;99.90
33717;DHT22;20046;50.746;7.072;2023-07-31T09:54:10;18.60;99.90
33717;DHT22;20046;50.746;7.072;2023-07-31T09:56:48;18.70;99.90
33717;DHT22;20046;50.746;7.072;2023-07-31T09:59:18;18.80;99.90
33717;DHT22;20046;50.746;7.072;2023-07-31T10:01:45;18.90;99.90
33717;DHT22;20046;50.746;7.072;2023-07-31T10:04:12;19.10;99.90
33717;DHT22;20046;50.746;7.072;2023-07-31T10:06:40;19.30;99.90
33717;DHT22;20046;50.746;7.072;2023-07-31T10:09:07;19.50;99.90
33717;DHT22;20046;50.746;7.072;2023-07-31T10:11:53;19.80;99.90
33717;DHT22;20046;50.746;7.072;2023-07-31T10:14:21;20.20;99.90
33717;DHT22;20046;50.746;7.072;2023-07-31T10:16:49;20.60;99.90
33717;DHT22;20046;50.746;7.072;2023-07-31T10:19:16;20.80;99.90
33717;DHT22;20046;50.746;7.072;2023-07-31T10:21:42;21.00;99.90
33717;DHT22;20046;50.746;7.072;2023-07-31T10:24:09;21.10;99.90
33717;DHT22;20046;50.746;7.072;2023-07-31T10:26:35;21.20;99.90
33717;DHT22;20046;50.746;7.072;2023-07-31T10:29:03;21.50;99.90
33717;DHT22;20046;50.746;7.072;2023-07-31T10:31:29;21.90;99.90
33717;DHT22;20046;50.746;7.072;2023-07-31T10:33:57;22.10;99.90
33717;DHT22;20046;50.746;7.072;2023-07-31T10:36:24;22.40;99.90
33717;DHT22;20046;50.746;7.072;2023-07-31T10:38:50;22.70;99.90
33717;DHT22;20046;50.746;7.072;2023-07-31T10:41:16;22.80;99.90
33717;DHT22;20046;50.746;7.072;2023-07-31T10:43:42;22.80;99.90
33717;DHT22;20046;50.746;7.072;2023-07-31T10:46:09;22.90;99.90
33717;DHT22;20046;50.746;7.072;2023-07-31T10:48:37;23.00;99.90
33717;DHT22;20046;50.746;7.072;2023-07-31T10:51:07;23.00;99.90
33717;DHT22;20046;50.746;7.072;2023-07-31T10:53:34;22.90;99.90
33717;DHT22;20046;50.746;7.072;2023-07-31T10:56:01;22.90;99.90
33717;DHT22;20046;50.746;7.072;2023-07-31T10:58:27;22.80;99.90
33717;DHT22;20046;50.746;7.072;2023-07-31T11:00:57;22.70;99.90
33717;DHT22;20046;50.746;7.072;2023-07-31T11:03:40;22.50;99.90
33717;DHT22;20046;50.746;7.072;2023-07-31T11:06:07;22.40;99.90
33717;DHT22;20046;50.746;7.072;2023-07-31T11:08:34;22.50;99.90
33717;DHT22;20046;50.746;7.072;2023-07-31T11:13:29;22.40;99.90
33717;DHT22;20046;50.746;7.072;2023-07-31T11:15:55;22.30;99.90
33717;DHT22;20046;50.746;7.072;2023-07-31T11:18:20;22.10;99.90
33717;DHT22;20046;50.746;7.072;2023-07-31T11:20:46;22.00;99.90
33717;DHT22;20046;50.746;7.072;2023-07-31T11:23:12;21.80;99.90
33717;DHT22;20046;50.746;7.072;2023-07-31T11:25:39;21.70;99.90
33717;DHT22;20046;50.746;7.072;2023-07-31T11:28:14;21.70;99.90
33717;DHT22;20046;50.746;7.072;2023-07-31T11:30:41;21.70;99.90
33717;DHT22;20046;50.746;7.072;2023-07-31T11:33:08;21.70;99.90
33717;DHT22;20046;50.746;7.072;2023-07-31T11:35:35;21.70;99.90
33717;DHT22;20046;50.746;7.072;2023-07-31T11:38:02;21.50;99.90
33717;DHT22;20046;50.746;7.072;2023-07-31T11:40:28;21.20;99.90
33717;DHT22;20046;50.746;7.072;2023-07-31T11:42:58;20.80;99.90
33717;DHT22;20046;50.746;7.072;2023-07-31T11:45:29;20.60;99.90
33717;DHT22;20046;50.746;7.072;2023-07-31T11:47:56;20.70;99.90
33717;DHT22;20046;50.746;7.072;2023-07-31T11:50:22;20.90;99.90
33717;DHT22;20046;50.746;7.072;2023-07-31T11:52:52;21.40;99.90
33717;DHT22;20046;50.746;7.072;2023-07-31T11:55:18;21.80;99.90
33717;DHT22;20046;50.746;7.072;2023-07-31T11:57:45;22.10;99.90
33717;DHT22;20046;50.746;7.072;2023-07-31T12:00:11;22.30;99.90
33717;DHT22;20046;50.746;7.072;2023-07-31T12:02:38;22.70;99.90
33717;DHT22;20046;50.746;7.072;2023-07-31T12:05:13;23.00;99.90
33717;DHT22;20046;50.746;7.072;2023-07-31T12:10:24;23.10;99.90
33717;DHT22;20046;50.746;7.072;2023-07-31T12:13:04;23.30;99.90
33717;DHT22;20046;50.746;7.072;2023-07-31T12:15:34;23.60;99.90
33717;DHT22;20046;50.746;7.072;2023-07-31T12:18:03;23.90;99.90
33717;DHT22;20046;50.746;7.072;2023-07-31T12:20:30;24.40;99.90
33717;DHT22;20046;50.746;7.072;2023-07-31T12:22:56;24.70;99.90
33717;DHT22;20046;50.746;7.072;2023-07-31T12:25:22;24.70;99.90
33717;DHT22;20046;50.746;7.072;2023-07-31T12:27:50;24.80;99.90
33717;DHT22;20046;50.746;7.072;2023-07-31T12:30:33;25.00;99.90
33717;DHT22;20046;50.746;7.072;2023-07-31T12:33:06;24.90;99.90
33717;DHT22;20046;50.746;7.072;2023-07-31T12:35:36;25.00;99.90
33717;DHT22;20046;50.746;7.072;2023-07-31T12:38:02;25.00;99.90
33717;DHT22;20046;50.746;7.072;2023-07-31T12:40:28;24.70;99.90
33717;DHT22;20046;50.746;7.072;2023-07-31T12:42:54;24.40;99.90
33717;DHT22;20046;50.746;7.072;2023-07-31T12:45:19;24.00;99.90
33717;DHT22;20046;50.746;7.072;2023-07-31T12:47:46;23.70;99.90
33717;DHT22;20046;50.746;7.072;2023-07-31T12:50:12;23.50;99.90
33717;DHT22;20046;50.746;7.072;2023-07-31T12:52:38;23.20;99.90
33717;DHT22;20046;50.746;7.072;2023-07-31T12:55:04;23.00;99.90
33717;DHT22;20046;50.746;7.072;2023-07-31T12:57:30;22.90;99.90
33717;DHT22;20046;50.746;7.072;2023-07-31T12:59:55;22.80;99.90
33717;DHT22;20046;50.746;7.072;2023-07-31T13:02:21;22.60;99.90
33717;DHT22;20046;50.746;7.072;2023-07-31T13:04:47;22.50;99.90
33717;DHT22;20046;50.746;7.072;2023-07-31T13:07:12;22.50;99.90
33717;DHT22;20046;50.746;7.072;2023-07-31T13:09:38;22.60;99.90
33717;DHT22;20046;50.746;7.072;2023-07-31T13:12:04;22.60;99.90
33717;DHT22;20046;50.746;7.072;2023-07-31T13:14:29;22.70;99.90
33717;DHT22;20046;50.746;7.072;2023-07-31T13:16:55;22.80;99.90
33717;DHT22;20046;50.746;7.072;2023-07-31T13:19:21;22.80;99.90
33717;DHT22;20046;50.746;7.072;2023-07-31T13:21:46;22.80;99.90
33717;DHT22;20046;50.746;7.072;2023-07-31T13:24:12;22.80;99.90
33717;DHT22;20046;50.746;7.072;2023-07-31T13:26:38;22.80;99.90
33717;DHT22;20046;50.746;7.072;2023-07-31T13:29:04;22.80;99.90
33717;DHT22;20046;50.746;7.072;2023-07-31T13:31:29;22.70;99.90
33717;DHT22;20046;50.746;7.072;2023-07-31T13:33:55;22.70;99.90
33717;DHT22;20046;50.746;7.072;2023-07-31T13:36:20;22.90;99.90
33717;DHT22;20046;50.746;7.072;2023-07-31T13:38:46;23.20;99.90
33717;DHT22;20046;50.746;7.072;2023-07-31T13:41:11;23.40;99.90
33717;DHT22;20046;50.746;7.072;2023-07-31T13:43:37;23.60;99.90
33717;DHT22;20046;50.746;7.072;2023-07-31T13:46:03;23.60;99.90
33717;DHT22;20046;50.746;7.072;2023-07-31T13:48:34;23.40;99.90
33717;DHT22;20046;50.746;7.072;2023-07-31T13:50:59;23.20;99.90
33717;DHT22;20046;50.746;7.072;2023-07-31T13:53:25;23.10;99.90
33717;DHT22;20046;50.746;7.072;2023-07-31T13:55:50;23.20;99.90
33717;DHT22;20046;50.746;7.072;2023-07-31T13:58:17;23.60;99.90
33717;DHT22;20046;50.746;7.072;2023-07-31T14:00:43;23.80;99.90
33717;DHT22;20046;50.746;7.072;2023-07-31T14:03:08;24.10;99.90
33717;DHT22;20046;50.746;7.072;2023-07-31T14:05:35;24.30;99.90
33717;DHT22;20046;50.746;7.072;2023-07-31T14:08:00;24.30;99.90
33717;DHT22;20046;50.746;7.072;2023-07-31T14:10:26;24.30;99.90
33717;DHT22;20046;50.746;7.072;2023-07-31T14:12:51;24.30;99.90
33717;DHT22;20046;50.746;7.072;2023-07-31T14:15:17;24.30;99.90
33717;DHT22;20046;50.746;7.072;2023-07-31T14:17:42;24.30;99.90
33717;DHT22;20046;50.746;7.072;2023-07-31T14:20:09;24.00;99.90
33717;DHT22;20046;50.746;7.072;2023-07-31T14:22:34;23.70;99.90
33717;DHT22;20046;50.746;7.072;2023-07-31T14:25:01;23.40;99.90
33717;DHT22;20046;50.746;7.072;2023-07-31T14:27:27;23.20;99.90
33717;DHT22;20046;50.746;7.072;2023-07-31T14:29:52;23.00;99.90
33717;DHT22;20046;50.746;7.072;2023-07-31T14:32:18;22.70;99.90
33717;DHT22;20046;50.746;7.072;2023-07-31T14:34:43;22.60;99.90
33717;DHT22;20046;50.746;7.072;2023-07-31T14:37:09;22.40;99.90
33717;DHT22;20046;50.746;7.072;2023-07-31T14:39:34;22.20;99.90
33717;DHT22;20046;50.746;7.072;2023-07-31T14:42:00;21.90;99.90
33717;DHT22;20046;50.746;7.072;2023-07-31T14:44:26;21.70;99.90
33717;DHT22;20046;50.746;7.072;2023-07-31T14:46:51;21.60;99.90
33717;DHT22;20046;50.746;7.072;2023-07-31T14:49:17;21.50;99.90
33717;DHT22;20046;50.746;7.072;2023-07-31T14:51:43;21.50;99.90
33717;DHT22;20046;50.746;7.072;2023-07-31T14:54:08;21.50;99.90
33717;DHT22;20046;50.746;7.072;2023-07-31T14:56:34;21.60;99.90
33717;DHT22;20046;50.746;7.072;2023-07-31T14:59:02;21.60;99.90
33717;DHT22;20046;50.746;7.072;2023-07-31T15:01:28;21.60;99.90
33717;DHT22;20046;50.746;7.072;2023-07-31T15:03:57;21.60;99.90
33717;DHT22;20046;50.746;7.072;2023-07-31T15:06:22;21.50;99.90
33717;DHT22;20046;50.746;7.072;2023-07-31T15:08:48;21.50;99.90
33717;DHT22;20046;50.746;7.072;2023-07-31T15:11:13;21.40;99.90
33717;DHT22;20046;50.746;7.072;2023-07-31T15:13:41;21.40;99.90
33717;DHT22;20046;50.746;7.072;2023-07-31T15:16:06;21.30;99.90
33717;DHT22;20046;50.746;7.072;2023-07-31T15:18:32;21.20;99.90
33717;DHT22;20046;50.746;7.072;2023-07-31T15:20:58;21.10;99.90
33717;DHT22;20046;50.746;7.072;2023-07-31T15:23:23;21.00;99.90
33717;DHT22;20046;50.746;7.072;2023-07-31T15:25:49;21.00;99.90
33717;DHT22;20046;50.746;7.072;2023-07-31T15:28:14;21.00;99.90
33717;DHT22;20046;50.746;7.072;2023-07-31T15:30:41;20.90;99.90
33717;DHT22;20046;50.746;7.072;2023-07-31T15:33:06;20.90;99.90
33717;DHT22;20046;50.746;7.072;2023-07-31T15:35:32;21.00;99.90
33717;DHT22;20046;50.746;7.072;2023-07-31T15:37:57;21.00;99.90
33717;DHT22;20046;50.746;7.072;2023-07-31T15:40:23;21.00;99.90